Airfield :
LOGIN :

Register | Disclaimer

   EN    FR    IT 

 










Legend :    VFR   Marginal VFR   IFR   Intensive IFR   Very Intensive IFR
Visi :
Ceiling :
>= 8 km
>= 3000ft
5 to 8 km
1000 to 3000 ft
1500m to 5 km
500 to 1000 ft
800 to 1500m
200 to 500 ft
< 800m
< 200 ft
Symbols :   Thunderstorms  Fog  Heavy snow  Heavy precipitations  Wind > 20 kt
SIGMETs :     Misc.  Thunderstorms  Icing  Turbulence  Mountain Waves  Volcanic Ashes






- Airport Elevation : 1020 ft
- IATA code : ILZ


LZZI - Žilina

CURRENT METAR :
  • 210500Z 13002KT 5000 BR OVC016 M02/M03 Q1043

EXPIRED METARs :
  • 210430Z 05002KT 4700 BR OVC016 M02/M03 Q1043
  • 210400Z 00000KT 5000 BR OVC017 M03/M03 Q1043
  • 210330Z VRB01KT 5000 BR OVC018 M03/M03 Q1043
  • 210300Z VRB01KT 5000 BR FEW003 OVC019 M03/M03 Q1044
  • 210230Z 00000KT 4800 BR OVC020 M03/M04 Q1044

TAF TAF LZZI
Valid from the 21 at 03:00 until the 21 at 12:00 UTC


210200Z 2103/2112 VRB02KT 3000 BR BKN022
BECMG 2103/2105 1200 BCFG BKN003
TEMPO 2103/2107 0700 FZFG OVC003
PROB40
TEMPO 2103/2106 0200 FZFG OVC002



MET'MAP, your aeronautical weather chart ! - Copyright ORBIFLY December 2007 - Disclaimer

ORBIFLY MET'MAP TEAM :

Programming & Development : Alexandra Zaïnal
Concept & original design : Baudouin d'Aumeries
Assistance for programming : Marc-Olivier Méhu
Technical & hardware support : Manuel Goepfert

Contact : metmap@orbifly.com




SOURCES & CREDITS :

   NOAA